DATI METEO

IERI
Time Temp. P.to rug.. Umid. Press.
00:03 20.2 16.4 79 1013.5
00:13 20.1 16.3 79 1013.4
00:23 20.1 16.3 79 1013.3
00:33 20.1 16.5 80 1013.1
00:44 20 16.4 80 1013.1
00:54 20 16.4 80 1013
01:03 20 16.4 80 1012.9
01:13 20 16.4 80 1012.9
01:24 20 16.4 80 1012.8
01:34 19.9 16.2 79 1012.7
01:44 19.9 16.2 79 1012.5
01:54 19.9 16.2 79 1012.4
02:04 19.9 16 78 1012.3
02:14 19.9 15.8 77 1012.3
02:24 19.9 15.8 77 1012.3
02:35 19.9 15.5 76 1012.3
02:44 19.9 15.5 76 1012.3
02:54 19.9 15.5 76 1012.4
03:05 19.9 15.5 76 1012.4
03:15 19.8 15.9 78 1012.3
03:25 19.8 16.3 80 1012.3
03:35 19.7 16.2 80 1012.4
03:45 19.5 16 80 1012.4
03:55 19.3 16 81 1012.4
04:05 19.2 15.9 81 1012.3
04:15 19.1 16 82 1012.2
04:26 18.9 15.8 82 1012.2
04:35 18.9 15.8 82 1012.3
04:45 18.8 15.9 83 1012.4
04:56 18.7 15.8 83 1012.2
05:06 18.7 15.8 83 1012.1
05:16 18.5 15.6 83 1011.9
05:26 18.5 15.6 83 1011.8
05:36 18.5 15.6 83 1011.7
05:46 18.5 15.6 83 1011.5
05:56 18.5 15.6 83 1011.4
06:07 18.6 15.8 84 1011.5
06:17 18.6 15.8 84 1011.4
06:26 18.7 15.9 84 1011.4
06:36 18.8 16 84 1011.4
06:47 18.7 15.8 83 1011.3
06:57 18.8 16 84 1011.4
07:07 18.8 16 84 1011.6
07:17 18.9 16.1 84 1011.6
07:27 18.9 16.1 84 1011.6
07:37 19 16.2 84 1011.6
07:47 19 16.2 84 1011.6
07:58 19.1 16.3 84 1011.6
08:07 19.1 16.3 84 1011.6
08:17 19.3 16.5 84 1011.8
08:28 19.4 16.6 84 1011.8
08:38 19.5 16.5 83 1011.9
08:48 19.7 16.5 82 1011.8
08:58 19.9 16.7 82 1012
09:08 20 16.8 82 1012.1
09:18 20.1 16.9 82 1012.1
09:28 20.2 16.8 81 1012.1
09:38 20.4 17 81 1012.1
09:49 20.5 16.9 80 1012.1
09:58 20.6 17 80 1012.2
10:08 20.6 17 80 1012.3
10:19 20.6 17 80 1012.1
10:29 20.7 17.1 80 1012.1
10:39 20.9 17.3 80 1012
10:49 20.8 17.2 80 1012
10:59 21 17.4 80 1012
11:09 21 17.2 79 1012
11:19 21 17.2 79 1012.1
11:30 21 16.8 77 1012.1
11:40 21.2 17 77 1012.1
11:49 21.3 16.7 75 1012
11:59 21.4 16.8 75 1012
12:10 21.4 16.8 75 1012.1
12:20 21.5 16.7 74 1012
12:30 21.5 16.5 73 1011.9
12:40 21.7 16.4 72 1011.8
12:50 22.1 17 73 1011.7
13:00 22.6 17.3 72 1011.6
13:10 22.7 17.4 72 1011.6
13:21 22.7 17.4 72 1011.4
13:30 22.8 17.7 73 1011.4
13:40 22.9 17.8 73 1011.4
13:51 22.9 17.6 72 1011.2
14:01 22.9 17.8 73 1011.1
14:11 22.9 17.6 72 1010.9
14:21 22.8 17.7 73 1010.7
14:31 22.8 17.9 74 1010.7
14:41 22.9 18 74 1010.6
14:51 22.8 18.1 75 1010.5
15:01 23 18.3 75 1010.6
15:12 23.1 18.4 75 1010.5
15:21 23.2 18.3 74 1010.5
15:31 23.4 18.5 74 1010.3
15:42 23.3 18.2 73 1010.2
15:52 23.5 18.4 73 1010.2
16:02 23.9 18.5 72 1010
16:15 23.9 18.3 71 1010.1
16:25 23.8 18.2 71 1010
16:35 23.5 17.9 71 1010.2
16:46 23.4 18.1 72 1009.9
16:56 23.6 18.3 72 1009.6
17:05 24 18.4 71 1009.9
17:16 24.4 18.3 69 1009.9
17:26 24.7 18.4 68 1009.7
17:36 25.2 18.4 66 1009.6
17:46 25.6 18 63 1009.6
17:56 25.8 18.2 63 1009.7
18:06 25.9 18.1 62 1009.7
18:16 26 17.9 61 1009.6
18:27 25.7 17.6 61 1009.5
18:37 25.8 17.7 61 1009.6
18:46 25.6 17.5 61 1009.6
18:56 25.5 17.7 62 1009.6
19:07 25.5 17.4 61 1009.7
19:17 25 17.2 62 1009.8
19:27 24.7 17.2 63 1009.9
19:37 24.5 17.2 64 1010
19:47 24.1 17.1 65 1009.8
19:57 23.8 17.1 66 1009.7
20:07 23.6 16.9 66 1009.6
20:18 23.4 16.9 67 1009.7
20:28 23.1 16.6 67 1009.8
20:37 22.9 16.7 68 1009.8
20:48 22.6 16.4 68 1009.8
20:58 22.4 16.4 69 1009.9
21:08 22.2 16.5 70 1009.9
21:19 22 16.5 71 1009.9
21:29 21.8 16.3 71 1010
21:39 21.7 16.4 72 1010.1
21:49 21.6 16.3 72 1010.2
21:59 21.5 16.2 72 1010.4
22:16 21.4 16.4 73 1010.6
22:26 21.2 16.2 73 1010.6
22:36 21.2 16.2 73 1010.7
22:46 21.1 16.3 74 1010.8
22:57 21 16.2 74 1010.8
23:07 21 16.2 74 1010.8
23:16 20.9 16.3 75 1010.9
23:26 20.9 16.3 75 1010.9
23:37 20.8 16.2 75 1010.9
23:47 20.7 16.1 75 1010.9
23:56 20.6 16 75 1010.9

STATISTICHE GIORNALIERE

2026-05-04
TEMPERATURA
MEDIA
21.4
MASSIMA
26.0
18:16
MINIMA
18.5
05:16
PRESSIONE
MEDIA
1011.3
MASSIMA
1013.5
00:03
MINIMA
1009.5
18:27
PUNTO DI RUGIADA
MEDIA
16.8
MASSIMA
18.5
15:31
MINIMA
15.5
02:35
UMIDITÀ
MEDIA
76
MASSIMA
84
06:07
MINIMA
61
18:16
TEMPERATURA (°C)
MINIMA
18.5
MASSIMA
26.0
MEDIA
21.4
PRESSIONE (hpa)
MINIMA
1009.5
MASSIMA
1013.5
MEDIA
1011.3
DEVICE